Time;durP1;ratioP1;P1;durP2;ratioP2;P2;SDS_P1;SDS_P2;PMS_P1;PMS_P2;Temp;Humidity;BMP_temperature;BMP_pressure;BME280_temperature;BME280_humidity;BME280_pressure;Samples;Min_cycle;Max_cycle;Signal;HPM_P1;HPM_P2
2021/12/09 00:00:57;;;;;;;16.57;8.30;;;;;;;2.12;88.72;100134.31;5068824;28;20058;-64
2021/12/09 00:03:23;;;;;;;15.93;7.77;;;;;;;2.10;88.48;100130.19;5072882;28;20032;-64
2021/12/09 00:05:48;;;;;;;15.93;8.27;;;;;;;2.06;88.63;100144.50;5071020;28;20377;-64
2021/12/09 00:08:14;;;;;;;18.40;8.37;;;;;;;2.04;88.86;100136.78;5070618;28;20097;-64
2021/12/09 00:10:39;;;;;;;15.37;8.10;;;;;;;2.03;88.64;100137.75;5069937;28;20035;-64
2021/12/09 00:13:06;;;;;;;20.33;8.33;;;;;;;2.02;88.98;100130.84;5065041;28;20116;-64
2021/12/09 00:15:32;;;;;;;14.93;7.40;;;;;;;2.00;88.69;100132.75;5070937;28;20024;-64
2021/12/09 00:17:57;;;;;;;17.23;8.40;;;;;;;1.98;88.93;100133.84;5069535;28;20086;-64
2021/12/09 00:20:23;;;;;;;15.40;7.80;;;;;;;1.97;88.92;100134.81;5070627;28;20040;-64
2021/12/09 00:22:48;;;;;;;13.37;7.77;;;;;;;1.94;88.90;100129.84;5071125;28;20086;-64
2021/12/09 00:25:14;;;;;;;16.87;8.10;;;;;;;1.91;89.06;100140.59;5069717;28;20071;-64
2021/12/09 00:27:40;;;;;;;15.13;7.77;;;;;;;1.87;89.09;100132.19;5068846;28;20085;-64
2021/12/09 00:30:06;;;;;;;19.13;8.47;;;;;;;1.92;89.23;100139.63;5070418;28;20047;-64
2021/12/09 00:32:32;;;;;;;16.77;8.33;;;;;;;1.92;89.22;100139.63;5071261;28;20525;-64
2021/12/09 00:34:57;;;;;;;16.57;8.40;;;;;;;1.91;89.41;100128.31;5070481;28;20561;-64
2021/12/09 00:37:30;;;;;;;19.80;8.30;;;;;;;1.94;89.36;100141.16;5071161;28;20024;-64
2021/12/09 00:39:55;;;;;;;14.43;8.27;;;;;;;1.92;89.39;100142.25;5067473;28;20028;-64
2021/12/09 00:42:22;;;;;;;16.20;8.13;;;;;;;1.87;89.34;100140.03;5070694;28;20052;-64
2021/12/09 00:44:49;;;;;;;16.73;7.97;;;;;;;1.82;89.34;100134.38;5070220;28;20028;-64
2021/12/09 00:47:14;;;;;;;14.80;8.17;;;;;;;1.82;89.35;100136.97;5070485;28;20566;-64
2021/12/09 00:49:40;;;;;;;17.13;9.10;;;;;;;1.84;89.65;100143.75;5069095;28;20030;-64
2021/12/09 00:52:06;;;;;;;20.83;8.27;;;;;;;1.84;89.67;100138.50;5070476;28;20043;-64
2021/12/09 00:54:31;;;;;;;18.67;8.57;;;;;;;1.88;89.54;100136.44;5070378;28;20036;-64
2021/12/09 00:56:56;;;;;;;18.10;8.57;;;;;;;1.89;89.66;100140.72;5070294;28;20127;-64
2021/12/09 00:59:22;;;;;;;16.83;8.40;;;;;;;1.91;89.60;100138.78;5069546;28;20070;-64
2021/12/09 01:01:47;;;;;;;16.07;8.30;;;;;;;1.96;89.74;100144.47;5069925;28;20032;-64
2021/12/09 01:04:13;;;;;;;14.43;7.90;;;;;;;1.98;89.94;100147.78;5070292;28;20032;-64
2021/12/09 01:06:38;;;;;;;20.13;8.23;;;;;;;2.01;89.83;100147.50;5070698;28;20391;-64
2021/12/09 01:09:05;;;;;;;19.40;8.10;;;;;;;2.02;89.70;100143.94;5068880;28;20032;-64
2021/12/09 01:11:31;;;;;;;20.40;8.53;;;;;;;2.04;89.81;100146.44;5069877;28;20056;-64
2021/12/09 01:13:56;;;;;;;15.73;7.60;;;;;;;2.05;89.67;100146.31;5071662;28;20052;-64
2021/12/09 01:16:22;;;;;;;17.53;8.27;;;;;;;2.03;89.79;100147.41;5069527;28;20042;-64
2021/12/09 01:18:48;;;;;;;15.13;7.70;;;;;;;2.03;89.66;100150.84;5068021;28;20032;-64
2021/12/09 01:21:13;;;;;;;16.37;7.80;;;;;;;2.02;89.74;100156.19;5069615;28;20053;-64
2021/12/09 01:23:40;;;;;;;15.47;8.20;;;;;;;1.97;89.24;100153.97;5069985;28;20056;-64
2021/12/09 01:26:07;;;;;;;18.30;8.10;;;;;;;1.97;89.46;100156.59;5069361;28;20043;-64
2021/12/09 01:28:42;;;;;;;18.57;8.10;;;;;;;1.92;89.64;100155.34;5068739;28;20426;-64
2021/12/09 01:31:08;;;;;;;16.57;8.27;;;;;;;1.89;89.74;100156.44;5067123;28;20036;-64
2021/12/09 01:33:35;;;;;;;17.13;7.83;;;;;;;1.86;89.77;100156.69;5066333;28;20062;-64
2021/12/09 01:36:02;;;;;;;18.00;8.60;;;;;;;1.85;89.50;100157.66;5069741;28;20573;-64
2021/12/09 01:38:31;;;;;;;16.17;8.47;;;;;;;1.83;89.64;100163.03;5068653;28;20028;-64
2021/12/09 01:40:57;;;;;;;17.87;7.83;;;;;;;1.82;89.85;100163.16;5069398;28;20771;-64
2021/12/09 01:43:23;;;;;;;19.97;8.67;;;;;;;1.79;89.99;100163.44;5065157;28;20119;-64
2021/12/09 01:45:48;;;;;;;17.47;8.23;;;;;;;1.78;89.92;100164.38;5073947;28;20126;-64
2021/12/09 01:48:15;;;;;;;15.87;7.87;;;;;;;1.72;89.96;100152.63;5068352;28;20068;-64
2021/12/09 01:50:41;;;;;;;16.80;8.33;;;;;;;1.71;89.98;100155.38;5069312;28;20401;-64
2021/12/09 01:53:07;;;;;;;16.90;7.70;;;;;;;1.70;89.95;100148.47;5068748;28;20090;-64
2021/12/09 01:55:34;;;;;;;19.40;8.20;;;;;;;1.68;90.11;100160.88;5069397;28;20413;-64
2021/12/09 01:58:00;;;;;;;22.60;8.50;;;;;;;1.65;90.23;100156.72;5068165;28;20467;-64
2021/12/09 02:00:29;;;;;;;16.20;7.97;;;;;;;1.64;89.92;100156.88;5069176;28;20115;-64
2021/12/09 02:02:55;;;;;;;19.07;8.50;;;;;;;1.62;90.15;100161.41;5067377;28;20039;-64
2021/12/09 02:05:21;;;;;;;19.70;7.80;;;;;;;1.61;90.17;100154.50;5068809;28;20029;-64
2021/12/09 02:07:47;;;;;;;16.90;7.73;;;;;;;1.59;90.26;100145.97;5068378;28;20033;-64
2021/12/09 02:10:17;;;;;;;16.47;7.90;;;;;;;1.55;90.22;100148.84;5068473;28;20036;-64
2021/12/09 02:12:45;;;;;;;15.03;7.47;;;;;;;1.52;90.17;100141.25;5069241;28;20040;-64
2021/12/09 02:15:10;;;;;;;17.83;8.13;;;;;;;1.55;90.35;100146.22;5068602;28;20035;-64
2021/12/09 02:17:36;;;;;;;19.70;7.93;;;;;;;1.54;90.44;100141.94;5068152;28;20037;-64
2021/12/09 02:20:04;;;;;;;13.33;7.73;;;;;;;1.51;90.24;100139.59;5068779;28;20031;-65
2021/12/09 02:22:30;;;;;;;17.47;8.13;;;;;;;1.50;90.24;100139.72;5070835;28;20024;-64
2021/12/09 02:24:57;;;;;;;16.00;8.20;;;;;;;1.48;90.55;100141.66;5068920;28;20024;-64
2021/12/09 02:27:23;;;;;;;16.73;7.90;;;;;;;1.47;90.50;100140.00;5067891;28;20162;-64
2021/12/09 02:29:53;;;;;;;15.37;7.87;;;;;;;1.45;90.64;100140.13;5067866;28;20487;-64
2021/12/09 02:32:18;;;;;;;19.10;8.00;;;;;;;1.42;90.66;100142.97;5065338;28;20024;-64
2021/12/09 02:34:44;;;;;;;19.07;8.30;;;;;;;1.42;90.57;100140.34;5068285;28;20036;-64
2021/12/09 02:37:13;;;;;;;15.77;7.73;;;;;;;1.42;90.50;100145.59;5068353;28;20082;-64
2021/12/09 02:39:38;;;;;;;17.13;8.23;;;;;;;1.44;90.66;100148.91;5067249;28;20407;-64
2021/12/09 02:42:04;;;;;;;20.10;8.43;;;;;;;1.43;90.82;100149.84;5068492;28;20024;-64
2021/12/09 02:44:29;;;;;;;12.33;7.70;;;;;;;1.41;90.64;100141.31;5068407;28;20549;-64
2021/12/09 02:46:56;;;;;;;18.67;8.30;;;;;;;1.40;90.57;100139.66;5068626;28;20028;-64
2021/12/09 02:49:26;;;;;;;18.00;7.57;;;;;;;1.37;90.60;100150.38;5067869;28;20027;-64
2021/12/09 02:51:53;;;;;;;14.20;7.33;;;;;;;1.33;90.73;100148.97;5068675;28;20108;-64
2021/12/09 02:54:20;;;;;;;17.47;7.80;;;;;;;1.34;90.83;100149.81;5068441;28;20048;-64
2021/12/09 02:56:47;;;;;;;16.53;7.43;;;;;;;1.34;90.85;100153.25;5068569;28;20713;-64
2021/12/09 02:59:13;;;;;;;17.93;7.37;;;;;;;1.32;90.86;100155.16;5067161;28;20020;-64
2021/12/09 03:02:01;;;;;;;14.80;7.80;;;;;;;1.33;90.97;100156.81;5068699;28;20035;-64
2021/12/09 03:04:40;;;;;;;17.13;8.03;;;;;;;1.34;90.86;100166.34;5068577;28;20028;-64
2021/12/09 03:07:07;;;;;;;;;;;;;;;1.34;90.95;100165.50;5067996;28;20028;-64
2021/12/09 03:09:32;;;;;;;15.97;7.60;;;;;;;1.34;91.04;100165.50;5067183;28;20389;-64
2021/12/09 03:12:03;;;;;;;14.60;7.27;;;;;;;1.35;91.26;100167.16;5068137;28;20146;-64
2021/12/09 03:14:29;;;;;;;15.60;7.53;;;;;;;1.37;91.01;100166.06;5068433;28;20070;-64
2021/12/09 03:16:54;;;;;;;18.73;7.70;;;;;;;1.39;91.18;100172.00;5063859;28;20036;-64
2021/12/09 03:19:19;;;;;;;19.43;7.67;;;;;;;1.41;90.89;100177.09;5065927;28;20031;-64
2021/12/09 03:21:47;;;;;;;16.03;7.37;;;;;;;1.38;90.90;100177.38;5066615;28;20088;-64
2021/12/09 03:24:15;;;;;;;18.80;7.07;;;;;;;1.36;90.84;100190.56;5068112;28;20024;-64
2021/12/09 03:26:46;;;;;;;13.87;7.03;;;;;;;1.33;90.82;100185.59;5067891;28;20117;-64
2021/12/09 03:29:13;;;;;;;18.97;7.63;;;;;;;1.33;90.79;100190.00;5065882;28;20077;-64
2021/12/09 03:31:40;;;;;;;16.00;7.60;;;;;;;1.34;90.92;100187.25;5067732;28;20410;-64
2021/12/09 03:34:07;;;;;;;17.07;7.60;;;;;;;1.33;90.88;100190.84;5070668;28;20020;-64
2021/12/09 03:36:33;;;;;;;16.07;7.40;;;;;;;1.32;90.74;100180.50;5067884;28;20024;-64
2021/12/09 03:39:01;;;;;;;17.77;7.73;;;;;;;1.34;90.92;100189.88;5065966;28;20029;-64
2021/12/09 03:41:27;;;;;;;17.73;6.80;;;;;;;1.32;90.90;100189.16;5064633;28;20031;-64
2021/12/09 03:43:54;;;;;;;16.97;7.60;;;;;;;1.36;90.88;100194.97;5067552;28;20029;-63
2021/12/09 03:46:20;;;;;;;16.97;7.60;;;;;;;1.33;90.90;100190.84;5070053;28;20082;-64
2021/12/09 03:48:45;;;;;;;12.37;6.63;;;;;;;1.33;90.66;100190.84;5070423;28;20476;-64
2021/12/09 03:51:11;;;;;;;17.40;7.50;;;;;;;1.29;90.72;100191.22;5070239;28;20060;-64
2021/12/09 03:53:37;;;;;;;19.40;7.40;;;;;;;1.27;90.87;100193.13;5070901;28;20028;-64
2021/12/09 03:56:02;;;;;;;16.80;7.30;;;;;;;1.27;90.85;100201.81;5070131;28;20024;-64
2021/12/09 03:58:28;;;;;;;21.63;7.53;;;;;;;1.28;91.03;100197.41;5067980;28;20467;-64
2021/12/09 04:00:53;;;;;;;16.00;7.27;;;;;;;1.26;90.80;100200.16;5071854;28;20032;-64
2021/12/09 04:03:19;;;;;;;19.20;7.53;;;;;;;1.27;91.07;100195.75;5071488;28;20384;-64
2021/12/09 04:05:45;;;;;;;19.07;7.50;;;;;;;1.23;90.96;100201.22;5071044;28;20062;-64
2021/12/09 04:08:11;;;;;;;21.17;7.93;;;;;;;1.22;91.01;100196.97;5070723;28;20044;-64
2021/12/09 04:10:36;;;;;;;17.53;7.23;;;;;;;1.20;90.96;100198.88;5070571;28;20020;-64
2021/12/09 04:13:02;;;;;;;18.80;7.37;;;;;;;1.16;91.00;100186.19;5071258;28;20162;-64
2021/12/09 04:15:28;;;;;;;16.63;7.53;;;;;;;1.12;90.95;100196.03;5070954;28;20078;-63
2021/12/09 04:17:54;;;;;;;18.00;6.83;;;;;;;1.10;91.13;100181.44;5069040;28;20031;-64
2021/12/09 04:20:20;;;;;;;14.97;7.27;;;;;;;1.08;91.22;100181.56;5070929;28;20418;-64
2021/12/09 04:22:48;;;;;;;15.20;6.63;;;;;;;1.06;91.04;100188.69;5071257;28;20039;-64
2021/12/09 04:25:16;;;;;;;17.77;7.10;;;;;;;1.04;91.20;100193.22;5070919;28;20035;-64
2021/12/09 04:27:42;;;;;;;15.73;7.20;;;;;;;1.05;91.19;100200.13;5064039;28;20020;-63
2021/12/09 04:30:07;;;;;;;21.63;7.30;;;;;;;1.03;91.26;100198.59;5070720;28;20025;-64
2021/12/09 04:32:32;;;;;;;20.33;7.43;;;;;;;1.03;91.46;100209.03;5067841;28;20029;-64
2021/12/09 04:34:58;;;;;;;15.50;6.60;;;;;;;1.01;91.44;100201.31;5070671;28;20028;-64
2021/12/09 04:37:23;;;;;;;15.07;6.60;;;;;;;1.00;91.11;100206.69;5070755;28;20031;-63
2021/12/09 04:39:49;;;;;;;14.93;7.10;;;;;;;0.99;91.41;100205.03;5069673;28;20028;-64
2021/12/09 04:42:14;;;;;;;15.10;6.97;;;;;;;0.98;91.27;100211.22;5071131;28;20020;-64
2021/12/09 04:44:39;;;;;;;16.33;6.50;;;;;;;1.02;91.46;100207.38;5070475;28;20036;-64
2021/12/09 04:47:04;;;;;;;18.17;7.10;;;;;;;1.02;91.43;100213.44;5070672;28;20395;-64
2021/12/09 04:49:30;;;;;;;15.47;6.53;;;;;;;1.03;91.54;100214.28;5069790;28;20089;-64
2021/12/09 04:51:57;;;;;;;16.37;6.30;;;;;;;1.01;91.34;100214.41;5070798;28;20059;-64
2021/12/09 04:54:23;;;;;;;16.90;7.10;;;;;;;1.02;91.35;100204.78;5070633;28;20016;-64
2021/12/09 04:56:48;;;;;;;17.43;7.00;;;;;;;1.01;91.50;100206.56;5070894;28;20036;-64
2021/12/09 04:59:14;;;;;;;19.00;7.13;;;;;;;1.00;91.38;100204.06;5074605;28;20028;-64
2021/12/09 05:01:41;;;;;;;16.40;6.57;;;;;;;1.01;91.25;100206.56;5074885;28;20021;-64
2021/12/09 05:04:06;;;;;;;13.10;6.33;;;;;;;0.98;91.40;100201.59;5070701;28;20032;-64
2021/12/09 05:06:31;;;;;;;18.93;6.83;;;;;;;0.98;91.28;100200.75;5070838;28;20016;-64
2021/12/09 05:09:04;;;;;;;19.13;6.77;;;;;;;0.97;91.32;100199.91;5067374;28;20186;-64
2021/12/09 05:13:55;;;;;;;15.17;6.70;;;;;;;0.99;91.59;100213.69;5070188;28;20032;-63
2021/12/09 05:16:20;;;;;;;16.50;6.27;;;;;;;0.96;91.48;100215.72;5070702;28;20031;-63
2021/12/09 05:18:48;;;;;;;18.87;6.80;;;;;;;0.95;91.50;100217.53;5068879;28;20075;-64
2021/12/09 05:21:14;;;;;;;16.27;5.93;;;;;;;0.96;91.55;100218.34;5068187;28;20549;-63
2021/12/09 05:23:40;;;;;;;15.17;5.93;;;;;;;0.96;91.56;100228.81;5069871;28;20025;-64
2021/12/09 05:26:06;;;;;;;12.40;5.30;;;;;;;0.96;91.53;100231.41;5068930;28;20081;-63
2021/12/09 05:28:35;;;;;;;14.30;5.50;;;;;;;0.95;91.50;100221.91;5065447;28;20111;-64
2021/12/09 05:33:46;;;;;;;16.83;5.90;;;;;;;0.89;91.36;100216.22;5069727;28;20173;-64
2021/12/09 05:36:12;;;;;;;13.67;6.53;;;;;;;0.93;91.44;100224.66;5068736;28;20111;-64
2021/12/09 05:38:38;;;;;;;12.67;5.50;;;;;;;0.91;91.61;100211.72;5061561;28;20021;-64
2021/12/09 05:41:04;;;;;;;16.40;5.73;;;;;;;0.92;91.70;100228.22;5068728;28;20070;-64
2021/12/09 05:43:30;;;;;;;15.27;5.87;;;;;;;0.90;91.50;100230.97;5067116;28;20447;-64
2021/12/09 05:45:55;;;;;;;16.90;5.90;;;;;;;0.91;91.57;100229.19;5068892;28;20052;-64
2021/12/09 05:48:21;;;;;;;11.97;5.27;;;;;;;0.92;91.62;100234.28;5067976;28;20020;-64
2021/12/09 05:50:46;;;;;;;14.80;5.67;;;;;;;0.92;91.58;100242.13;5068875;28;20078;-64
2021/12/09 05:53:14;;;;;;;13.70;6.03;;;;;;;0.91;91.71;100240.47;5067002;28;20052;-64
2021/12/09 05:55:43;;;;;;;17.50;6.30;;;;;;;0.95;91.76;100245.44;5068446;28;20112;-64
2021/12/09 05:58:09;;;;;;;;;;;;;;;0.96;91.81;100237.47;5068650;28;20032;-64
2021/12/09 06:00:34;;;;;;;14.90;5.73;;;;;;;0.93;91.57;100241.16;5068183;28;20291;-63
2021/12/09 06:03:00;;;;;;;17.87;6.13;;;;;;;0.91;91.71;100237.84;5066687;28;20066;-64
2021/12/09 06:05:25;;;;;;;15.03;6.07;;;;;;;0.87;91.70;100230.38;5068472;28;20024;-64
2021/12/09 06:07:51;;;;;;;16.87;5.83;;;;;;;0.89;91.75;100228.47;5065547;28;20020;-64
2021/12/09 06:10:16;;;;;;;12.83;5.60;;;;;;;0.89;91.70;100238.94;5068126;28;20026;-64
2021/12/09 06:12:41;;;;;;;15.93;5.93;;;;;;;0.87;91.77;100236.44;5068784;28;20069;-64
2021/12/09 06:15:07;;;;;;;13.87;5.57;;;;;;;0.85;91.77;100238.31;5068711;28;20621;-64
2021/12/09 06:17:32;;;;;;;19.17;6.30;;;;;;;0.84;91.95;100241.88;5066849;28;20036;-64
2021/12/09 06:19:58;;;;;;;10.63;5.93;;;;;;;0.83;91.76;100240.22;5066932;28;20028;-64
2021/12/09 06:22:23;;;;;;;19.30;6.33;;;;;;;0.84;91.94;100244.50;5067648;28;20052;-63
2021/12/09 06:24:48;;;;;;;15.30;6.00;;;;;;;0.85;91.84;100238.31;5067846;28;20453;-63
2021/12/09 06:27:14;;;;;;;17.53;6.07;;;;;;;0.85;91.94;100235.69;5066369;28;20020;-64
2021/12/09 06:29:40;;;;;;;19.97;6.60;;;;;;;0.86;91.96;100239.16;5067274;28;20021;-64
2021/12/09 06:32:06;;;;;;;13.27;5.93;;;;;;;0.85;92.02;100234.88;5067885;28;20032;-64
2021/12/09 06:34:32;;;;;;;17.60;7.03;;;;;;;0.87;92.03;100236.44;5067718;28;20028;-64
2021/12/09 06:36:57;;;;;;;19.47;6.37;;;;;;;0.85;92.03;100235.69;5067761;28;20050;-64
2021/12/09 06:39:23;;;;;;;18.43;6.73;;;;;;;0.86;91.82;100247.00;5064330;28;20114;-64
2021/12/09 06:41:48;;;;;;;17.37;6.10;;;;;;;0.79;92.13;100244.03;5066795;28;20021;-64
2021/12/09 06:44:14;;;;;;;16.83;6.60;;;;;;;0.79;91.89;100245.81;5066949;28;20048;-64
2021/12/09 06:46:39;;;;;;;18.87;6.57;;;;;;;0.78;92.03;100258.06;5067728;28;20024;-64
2021/12/09 06:49:05;;;;;;;18.50;6.60;;;;;;;0.73;92.11;100255.00;5061467;28;20481;-64
2021/12/09 06:51:31;;;;;;;18.67;6.33;;;;;;;0.72;92.26;100263.78;5067682;28;20099;-64
2021/12/09 06:53:56;;;;;;;15.70;6.70;;;;;;;0.72;92.10;100260.34;5067037;28;20095;-64
2021/12/09 06:56:22;;;;;;;17.87;6.83;;;;;;;0.75;92.45;100260.09;5067952;28;20394;-64
2021/12/09 06:58:48;;;;;;;18.63;6.87;;;;;;;0.77;92.43;100260.81;5065135;28;20028;-64
2021/12/09 07:01:14;;;;;;;18.53;7.07;;;;;;;0.79;92.38;100259.72;5067693;28;20078;-64
2021/12/09 07:03:39;;;;;;;18.20;6.57;;;;;;;0.84;92.75;100261.97;5061682;28;20602;-64
2021/12/09 07:06:06;;;;;;;19.83;6.70;;;;;;;0.86;92.64;100260.88;5067872;28;20063;-64
2021/12/09 07:08:45;;;;;;;18.20;6.50;;;;;;;0.87;92.58;100259.13;5066188;28;20020;-64
2021/12/09 07:11:12;;;;;;;24.23;7.00;;;;;;;0.89;92.66;100263.28;5068388;28;20108;-64
2021/12/09 07:13:37;;;;;;;16.43;6.70;;;;;;;0.91;92.34;100260.53;5066635;28;20020;-64
2021/12/09 07:16:03;;;;;;;20.23;7.20;;;;;;;0.90;92.48;100264.94;5067847;28;20590;-64
2021/12/09 07:18:29;;;;;;;17.40;6.90;;;;;;;0.89;92.39;100255.44;5070636;28;20040;-64
2021/12/09 07:20:55;;;;;;;17.50;6.60;;;;;;;0.89;92.44;100267.69;5071954;28;20032;-64
2021/12/09 07:23:22;;;;;;;14.60;6.27;;;;;;;0.84;92.19;100261.97;5071142;28;20044;-64
2021/12/09 07:25:47;;;;;;;19.73;6.63;;;;;;;0.86;92.03;100276.56;5072290;28;20153;-64
2021/12/09 07:28:13;;;;;;;16.97;6.57;;;;;;;0.87;92.42;100272.22;5071751;28;20028;-64
2021/12/09 07:30:38;;;;;;;18.67;7.13;;;;;;;0.88;92.47;100266.84;5071385;28;20476;-64
2021/12/09 07:33:04;;;;;;;19.00;7.43;;;;;;;0.88;92.27;100279.91;5070230;28;20036;-64
2021/12/09 07:35:30;;;;;;;21.20;7.23;;;;;;;0.89;92.26;100267.69;5066639;28;20090;-64
2021/12/09 07:38:01;;;;;;;21.40;7.70;;;;;;;0.90;92.45;100279.78;5068739;28;20056;-64
2021/12/09 07:40:28;;;;;;;18.67;7.47;;;;;;;0.89;92.54;100272.91;5073010;28;20047;-64
2021/12/09 07:42:53;;;;;;;16.13;7.80;;;;;;;0.85;92.35;100269.69;5071382;28;20032;-64
2021/12/09 07:45:19;;;;;;;14.03;6.83;;;;;;;0.91;92.44;100274.44;5071992;28;20028;-64
2021/12/09 07:47:45;;;;;;;15.90;7.57;;;;;;;0.90;92.48;100283.25;5070851;28;20029;-64
2021/12/09 07:50:14;;;;;;;18.67;6.97;;;;;;;0.88;92.19;100285.16;5071435;28;20509;-64
2021/12/09 07:52:41;;;;;;;17.10;6.95;;;;;;;0.86;92.17;100270.50;5071524;28;20815;-64
2021/12/09 07:55:07;;;;;;;16.20;7.00;;;;;;;0.88;92.36;100273.88;5071938;28;20024;-64
2021/12/09 07:57:33;;;;;;;13.77;7.40;;;;;;;0.87;92.37;100278.25;5071174;28;20491;-64
2021/12/09 07:59:59;;;;;;;19.33;7.50;;;;;;;0.86;92.14;100279.19;5071934;28;20095;-64
2021/12/09 08:02:25;;;;;;;16.23;7.37;;;;;;;0.86;92.29;100270.50;5071423;28;20028;-64
2021/12/09 08:04:50;;;;;;;16.10;6.70;;;;;;;0.87;92.39;100280.88;5071414;28;20052;-64
2021/12/09 08:07:16;;;;;;;21.13;7.23;;;;;;;0.87;92.49;100288.72;5071465;28;20022;-64
2021/12/09 08:09:41;;;;;;;15.13;7.33;;;;;;;0.91;92.55;100290.13;5070574;28;20035;-64
2021/12/09 08:12:07;;;;;;;17.70;7.40;;;;;;;0.94;92.53;100299.50;5071309;28;20050;-64
2021/12/09 08:14:32;;;;;;;20.63;7.20;;;;;;;0.96;92.75;100297.59;5071585;28;20606;-64
2021/12/09 08:17:11;;;;;;;15.53;7.47;;;;;;;0.99;92.50;100306.97;5071151;28;20046;-64
2021/12/09 08:19:37;;;;;;;16.85;7.40;;;;;;;1.00;92.64;100306.03;5067271;28;20028;-64
2021/12/09 08:22:02;;;;;;;19.93;7.53;;;;;;;1.03;92.47;100306.59;5070314;28;20032;-64
2021/12/09 08:24:28;;;;;;;20.63;7.57;;;;;;;1.02;92.39;100304.13;5071266;28;20028;-64
2021/12/09 08:26:53;;;;;;;20.80;7.37;;;;;;;1.08;92.42;100303.63;5071131;28;20032;-64
2021/12/09 08:29:18;;;;;;;17.13;6.83;;;;;;;1.11;92.60;100298.13;5070143;28;20052;-64
2021/12/09 08:31:43;;;;;;;18.60;7.00;;;;;;;1.12;92.45;100300.63;5070198;28;20047;-64
2021/12/09 08:34:09;;;;;;;19.70;6.97;;;;;;;1.13;92.31;100291.00;5071430;28;20419;-64
2021/12/09 08:36:34;;;;;;;17.93;6.97;;;;;;;1.15;92.48;100286.47;5071189;28;20030;-64
2021/12/09 08:38:59;;;;;;;18.70;6.87;;;;;;;1.15;92.49;100289.09;5070003;28;20640;-64
2021/12/09 08:41:26;;;;;;;16.27;7.47;;;;;;;1.19;92.30;100291.38;5070876;28;20039;-64
2021/12/09 08:43:51;;;;;;;16.27;6.73;;;;;;;1.25;92.37;100300.50;5070839;28;20033;-64
2021/12/09 08:46:17;;;;;;;18.07;7.57;;;;;;;1.29;92.48;100294.06;5067623;28;20094;-64
2021/12/09 08:48:43;;;;;;;17.00;7.43;;;;;;;1.39;92.61;100297.56;5069600;28;20028;-64
2021/12/09 08:51:09;;;;;;;14.80;7.47;;;;;;;1.44;92.40;100303.25;5070158;28;20028;-64
2021/12/09 08:53:34;;;;;;;20.33;7.27;;;;;;;1.48;92.42;100298.63;5070783;28;20056;-64
2021/12/09 08:56:00;;;;;;;21.57;6.80;;;;;;;1.51;92.33;100304.44;5070000;28;20468;-64
2021/12/09 08:58:28;;;;;;;16.03;7.23;;;;;;;1.57;92.30;100304.88;5069803;28;20024;-64
2021/12/09 09:00:57;;;;;;;15.20;7.07;;;;;;;1.60;92.14;100307.25;5063806;28;20059;-64
2021/12/09 09:03:22;;;;;;;18.50;7.07;;;;;;;1.63;92.14;100307.81;5077682;28;20032;-64
2021/12/09 09:05:48;;;;;;;15.07;6.93;;;;;;;1.66;92.13;100304.13;5070524;28;20091;-64
2021/12/09 09:08:13;;;;;;;17.13;6.90;;;;;;;1.68;91.96;100310.88;5068841;28;20025;-64
2021/12/09 09:10:42;;;;;;;16.63;6.97;;;;;;;1.68;91.99;100307.44;5070163;28;20064;-64
2021/12/09 09:13:07;;;;;;;15.57;6.83;;;;;;;1.72;92.07;100306.22;5070168;28;20028;-64
2021/12/09 09:15:33;;;;;;;17.80;7.40;;;;;;;1.75;91.82;100306.00;5070332;28;20024;-64
2021/12/09 09:18:00;;;;;;;20.23;7.50;;;;;;;1.82;91.95;100313.19;5069082;28;20059;-64
2021/12/09 09:20:28;;;;;;;19.07;6.73;;;;;;;1.85;91.79;100306.88;5069867;28;20472;-64
2021/12/09 09:22:54;;;;;;;17.87;7.53;;;;;;;1.91;91.86;100322.06;5070189;28;20032;-64
2021/12/09 09:25:28;;;;;;;19.70;6.80;;;;;;;1.93;91.87;100314.09;5067802;28;20032;-64
2021/12/09 09:27:53;;;;;;;14.47;6.77;;;;;;;1.95;91.73;100317.41;5067182;28;20032;-64
2021/12/09 09:30:19;;;;;;;14.23;6.83;;;;;;;1.97;91.59;100311.06;5069524;28;20036;-64
2021/12/09 09:32:47;;;;;;;16.13;7.33;;;;;;;2.00;91.66;100321.28;5069982;28;20029;-64
2021/12/09 09:35:13;;;;;;;18.07;7.70;;;;;;;2.03;91.69;100321.06;5069686;28;20052;-64
2021/12/09 09:37:39;;;;;;;18.80;7.57;;;;;;;2.07;91.32;100324.25;5069112;28;20040;-64
2021/12/09 09:40:12;;;;;;;22.03;7.50;;;;;;;2.09;91.67;100317.09;5069238;28;20024;-64
2021/12/09 09:45:04;;;;;;;24.80;8.17;;;;;;;2.16;91.33;100320.84;5069825;28;20032;-64
2021/12/09 09:47:30;;;;;;;18.57;8.10;;;;;;;2.20;91.38;100318.78;5067746;28;20032;-64
2021/12/09 09:49:57;;;;;;;18.83;7.77;;;;;;;2.24;91.29;100320.19;5065609;28;20073;-64
2021/12/09 09:52:23;;;;;;;20.73;8.60;;;;;;;2.26;91.29;100324.34;5069472;28;20028;-64
2021/12/09 09:54:50;;;;;;;16.20;9.00;;;;;;;2.31;91.13;100331.81;5069326;28;20036;-64
2021/12/09 09:57:15;;;;;;;19.90;7.80;;;;;;;2.35;91.17;100322.75;5069215;28;20086;-64
2021/12/09 09:59:42;;;;;;;21.83;8.30;;;;;;;2.37;91.34;100329.53;5068712;28;20029;-65
2021/12/09 10:02:09;;;;;;;17.80;8.53;;;;;;;2.38;91.03;100328.56;5069130;28;20395;-64
2021/12/09 10:07:04;;;;;;;16.43;7.83;;;;;;;2.44;91.08;100340.31;5062689;28;20029;-64
2021/12/09 10:09:30;;;;;;;20.97;8.47;;;;;;;2.46;90.87;100331.34;5068012;28;20036;-64
2021/12/09 10:11:55;;;;;;;22.37;8.87;;;;;;;2.51;90.92;100336.19;5068731;28;20648;-64
2021/12/09 10:14:24;;;;;;;21.07;8.93;;;;;;;2.54;91.04;100330.69;5069318;28;20024;-64
2021/12/09 10:17:07;;;;;;;17.00;8.00;;;;;;;2.56;90.83;100331.38;5069038;28;20786;-64
2021/12/09 10:19:34;;;;;;;16.10;7.87;;;;;;;2.59;90.81;100325.03;5066318;28;20032;-64
2021/12/09 10:22:06;;;;;;;22.70;9.00;;;;;;;2.60;91.08;100324.94;5068623;28;20074;-64
2021/12/09 10:24:32;;;;;;;20.10;8.60;;;;;;;2.62;90.87;100320.41;5065067;28;20021;-64
2021/12/09 10:26:58;;;;;;;15.97;8.60;;;;;;;2.55;91.02;100298.28;5068756;28;20491;-64
2021/12/09 10:29:36;;;;;;;18.07;8.23;;;;;;;2.68;91.12;100308.53;5068147;28;20025;-64
2021/12/09 10:32:05;;;;;;;18.00;8.57;;;;;;;2.70;91.14;100304.81;5068419;28;20036;-64
2021/12/09 10:37:20;;;;;;;20.10;9.00;;;;;;;2.76;91.27;100304.28;5068736;28;20014;-64
2021/12/09 10:39:55;;;;;;;17.63;8.60;;;;;;;2.76;91.19;100301.66;5067741;28;20269;-64
2021/12/09 10:42:24;;;;;;;26.00;8.90;;;;;;;2.80;91.30;100300.44;5068373;28;20064;-65
2021/12/09 10:45:00;;;;;;;18.45;9.32;;;;;;;2.84;91.38;100305.41;5068479;28;20115;-64
2021/12/09 10:50:25;;;;;;;18.67;9.40;;;;;;;2.92;91.39;100305.59;5068728;28;20036;-64
2021/12/09 10:52:57;;;;;;;16.20;9.20;;;;;;;2.95;91.24;100306.13;5068384;28;20419;-64
2021/12/09 10:55:24;;;;;;;16.30;9.23;;;;;;;3.00;91.36;100314.44;5068838;28;20048;-64
2021/12/09 10:57:56;;;;;;;17.33;9.00;;;;;;;3.04;91.21;100307.09;5067474;28;20040;-64
2021/12/09 11:00:32;;;;;;;16.20;9.20;;;;;;;3.10;91.20;100311.81;5068197;28;20533;-64
2021/12/09 11:03:11;;;;;;;16.30;9.27;;;;;;;3.15;91.02;100306.97;5068731;28;20098;-64
2021/12/09 11:05:39;;;;;;;;;;;;;;;3.21;91.26;100314.34;5068599;28;20035;-64
2021/12/09 11:08:13;;;;;;;16.10;9.50;;;;;;;3.23;91.05;100314.19;5065223;28;19970;-64
2021/12/09 11:10:46;;;;;;;19.57;8.80;;;;;;;3.21;91.07;100301.22;5071847;28;20121;-64
2021/12/09 11:13:11;;;;;;;14.07;9.07;;;;;;;3.25;91.07;100305.22;5067958;28;20036;-64
2021/12/09 11:16:05;;;;;;;14.27;8.63;;;;;;;3.26;91.08;100306.88;5067942;28;20029;-64
2021/12/09 11:18:41;;;;;;;17.77;9.23;;;;;;;3.26;90.97;100299.00;5063915;28;20131;-64
2021/12/09 11:21:24;;;;;;;16.30;9.37;;;;;;;3.29;91.21;100290.03;5066165;28;20079;-64
2021/12/09 11:23:56;;;;;;;20.00;9.57;;;;;;;3.33;91.15;100286.16;5067240;28;20039;-64
2021/12/09 11:26:52;;;;;;;16.43;8.83;;;;;;;3.30;91.25;100276.75;5064320;28;20395;-64
2021/12/09 11:29:19;;;;;;;14.17;9.43;;;;;;;3.36;91.05;100284.09;5065302;28;20063;-65
2021/12/09 11:31:58;;;;;;;14.57;8.57;;;;;;;3.40;90.92;100280.22;5067621;28;20024;-65
2021/12/09 11:34:29;;;;;;;18.53;9.77;;;;;;;3.43;90.79;100282.56;5065180;28;20031;-64
2021/12/09 11:37:02;;;;;;;20.23;9.57;;;;;;;3.46;90.75;100280.63;5066938;28;20659;-64
2021/12/09 11:39:32;;;;;;;16.40;8.33;;;;;;;3.46;90.57;100283.25;5063173;28;20036;-64
2021/12/09 11:42:31;;;;;;;16.37;8.90;;;;;;;3.48;90.86;100281.34;5063056;28;20107;-64